Time;durP1;ratioP1;P1;durP2;ratioP2;P2;SDS_P1;SDS_P2;PMS_P1;PMS_P2;Temp;Humidity;BMP_temperature;BMP_pressure;BME280_temperature;BME280_humidity;BME280_pressure;Samples;Min_cycle;Max_cycle;Signal;HPM_P1;HPM_P2
2021/11/08 00:01:53;;;;;;;15.82;4.63;;;;;;;8.92;86.05;101941.84;4995615;28;20077;-48
2021/11/08 00:04:20;;;;;;;16.05;4.78;;;;;;;8.92;85.87;101946.44;4995298;28;20066;-50
2021/11/08 00:06:51;;;;;;;19.27;4.90;;;;;;;8.91;86.09;101942.88;4994216;28;20038;-52
2021/11/08 00:09:19;;;;;;;17.15;4.95;;;;;;;8.89;85.60;101931.41;4994074;28;20046;-53
2021/11/08 00:11:47;;;;;;;16.83;5.18;;;;;;;8.89;85.91;101942.28;4994662;28;20053;-51
2021/11/08 00:14:19;;;;;;;18.15;5.30;;;;;;;8.89;86.19;101936.84;4994620;28;20038;-51
2021/11/08 00:17:13;;;;;;;19.45;5.00;;;;;;;8.89;85.84;101939.56;4995247;28;20519;-53
2021/11/08 00:20:04;;;;;;;16.48;4.90;;;;;;;8.87;86.29;101946.28;4993928;28;20048;-51
2021/11/08 00:22:35;;;;;;;15.18;5.03;;;;;;;8.85;86.22;101941.09;4991705;28;20378;-51
2021/11/08 00:25:04;;;;;;;13.32;4.35;;;;;;;8.84;85.93;101939.44;4995090;28;20054;-52
2021/11/08 00:27:31;;;;;;;14.55;4.50;;;;;;;8.84;85.77;101935.88;4994356;28;20034;-51
2021/11/08 00:29:59;;;;;;;14.13;5.03;;;;;;;8.83;86.27;101934.25;4994301;28;20042;-51
2021/11/08 00:32:27;;;;;;;14.95;4.80;;;;;;;8.83;86.08;101937.78;4994972;28;20042;-51
2021/11/08 00:34:54;;;;;;;15.68;5.07;;;;;;;8.82;85.91;101941.53;4994533;28;20133;-52
2021/11/08 00:37:22;;;;;;;15.70;4.20;;;;;;;8.82;86.41;101935.28;4994313;28;20134;-51
2021/11/08 00:39:50;;;;;;;14.45;4.80;;;;;;;8.80;85.63;101940.94;4994291;28;20034;-50
2021/11/08 00:42:17;;;;;;;14.60;4.75;;;;;;;8.78;86.02;101940.34;4990205;28;20039;-51
2021/11/08 00:44:45;;;;;;;15.57;5.03;;;;;;;8.78;86.15;101943.06;4994268;28;20505;-51
2021/11/08 00:47:13;;;;;;;13.48;4.57;;;;;;;8.78;86.39;101945.78;4994972;28;20113;-52
2021/11/08 00:49:41;;;;;;;12.45;4.20;;;;;;;8.79;86.26;101941.19;4993508;28;20154;-51
2021/11/08 00:52:09;;;;;;;14.93;4.75;;;;;;;8.78;86.27;101950.38;4993537;28;20070;-51
2021/11/08 00:54:38;;;;;;;15.93;5.30;;;;;;;8.73;86.00;101946.47;4994367;28;20054;-51
2021/11/08 00:57:09;;;;;;;16.65;4.50;;;;;;;8.73;86.52;101959.22;4994188;28;20124;-53
2021/11/08 00:59:36;;;;;;;15.75;4.68;;;;;;;8.71;86.54;101953.19;4994025;28;20051;-52
2021/11/08 01:02:05;;;;;;;16.23;5.00;;;;;;;8.69;86.56;101961.56;4993450;28;20042;-52
2021/11/08 01:04:33;;;;;;;16.02;4.50;;;;;;;8.68;86.45;101957.19;4993947;28;20078;-49
2021/11/08 01:07:02;;;;;;;15.00;4.43;;;;;;;8.69;86.48;101958.03;4993946;28;20122;-50
2021/11/08 01:09:30;;;;;;;14.85;4.60;;;;;;;8.68;86.97;101961.78;4998340;28;20034;-53
2021/11/08 01:11:59;;;;;;;15.43;5.10;;;;;;;8.66;86.98;101955.75;4987316;28;20070;-51
2021/11/08 01:14:27;;;;;;;15.90;4.72;;;;;;;8.67;87.47;101960.13;4993627;28;20850;-50
2021/11/08 01:16:56;;;;;;;15.70;4.68;;;;;;;8.67;86.67;101960.13;4994146;28;20400;-52
2021/11/08 01:19:27;;;;;;;13.30;4.50;;;;;;;8.68;87.50;101961.78;4993011;28;20054;-53
2021/11/08 01:22:07;;;;;;;11.35;4.35;;;;;;;8.67;87.00;101966.38;4992342;28;20054;-50
2021/11/08 01:24:38;;;;;;;13.50;4.18;;;;;;;8.65;86.73;101963.06;4993550;28;20046;-49
2021/11/08 01:27:06;;;;;;;15.02;4.47;;;;;;;8.64;86.90;101966.03;4993894;28;20408;-50
2021/11/08 01:29:34;;;;;;;19.80;4.72;;;;;;;8.60;86.71;101970.25;4992834;28;20505;-51
2021/11/08 01:32:07;;;;;;;13.48;4.20;;;;;;;8.56;87.17;101961.69;4993385;28;20050;-51
2021/11/08 01:34:34;;;;;;;16.52;5.00;;;;;;;8.52;87.35;101961.34;5007083;28;20038;-48
2021/11/08 01:37:04;;;;;;;18.65;5.13;;;;;;;8.53;87.22;101959.44;4993187;28;20049;-51
2021/11/08 01:39:33;;;;;;;16.33;4.53;;;;;;;8.51;87.46;101953.41;4993322;28;20061;-51
2021/11/08 01:42:06;;;;;;;16.67;4.65;;;;;;;8.50;87.54;101949.88;4991343;28;20046;-52
2021/11/08 01:44:34;;;;;;;15.50;4.57;;;;;;;8.51;87.70;101956.97;4993185;28;20049;-51
2021/11/08 01:47:03;;;;;;;15.98;4.93;;;;;;;8.49;87.59;101953.66;4992176;28;20046;-51
2021/11/08 01:49:31;;;;;;;10.98;4.10;;;;;;;8.48;87.89;101957.41;4992507;28;20043;-50
2021/11/08 01:52:00;;;;;;;17.17;4.95;;;;;;;8.48;87.45;101954.69;4992753;28;20413;-53
2021/11/08 01:54:28;;;;;;;16.63;5.35;;;;;;;8.48;87.61;101962.00;5008458;28;20493;-50
2021/11/08 01:56:57;;;;;;;11.48;4.40;;;;;;;8.49;88.20;101959.09;4992890;28;20054;-51
2021/11/08 01:59:25;;;;;;;14.05;4.28;;;;;;;8.51;87.52;101962.41;4992279;28;20042;-53
2021/11/08 02:01:54;;;;;;;16.42;4.60;;;;;;;8.51;87.21;101962.41;4992907;28;20589;-48
2021/11/08 02:04:23;;;;;;;14.40;4.75;;;;;;;8.51;87.74;101956.97;4992582;28;20052;-51
2021/11/08 02:06:51;;;;;;;16.45;4.90;;;;;;;8.51;87.04;101956.97;4993213;28;20133;-51
2021/11/08 02:09:19;;;;;;;14.50;4.60;;;;;;;8.50;87.73;101960.72;4992363;28;20042;-51
2021/11/08 02:11:49;;;;;;;12.68;4.65;;;;;;;8.51;87.45;101965.13;4992972;28;20038;-50
2021/11/08 02:14:16;;;;;;;17.15;4.68;;;;;;;8.50;86.94;101960.72;4991883;28;20056;-50
2021/11/08 02:16:44;;;;;;;15.63;4.57;;;;;;;8.50;87.62;101955.31;4992865;28;20042;-52
2021/11/08 02:19:13;;;;;;;14.68;4.88;;;;;;;8.50;87.45;101957.19;4992060;28;20039;-52
2021/11/08 02:21:41;;;;;;;14.00;4.68;;;;;;;8.49;86.93;101964.53;4992991;28;20073;-51
2021/11/08 02:24:14;;;;;;;15.13;4.65;;;;;;;8.49;87.35;101964.53;4992224;28;20113;-49
2021/11/08 02:26:44;;;;;;;15.80;4.80;;;;;;;8.48;86.80;101962.84;4992808;28;20584;-48
2021/11/08 02:29:13;;;;;;;14.70;4.63;;;;;;;8.46;86.66;101954.09;4992103;28;20056;-52
2021/11/08 02:31:41;;;;;;;15.60;5.15;;;;;;;8.45;87.30;101966.00;4979143;28;20050;-51
2021/11/08 02:34:09;;;;;;;19.30;5.43;;;;;;;8.43;86.68;101954.53;4992616;28;20034;-52
2021/11/08 02:36:41;;;;;;;19.45;5.05;;;;;;;8.42;87.13;101962.91;4992211;28;20046;-50
2021/11/08 02:39:26;;;;;;;18.63;4.93;;;;;;;8.40;86.84;101965.03;4993018;28;20145;-47
2021/11/08 02:41:54;;;;;;;13.55;3.97;;;;;;;8.40;86.81;101962.31;4992578;28;20093;-54
2021/11/08 02:44:21;;;;;;;14.70;4.32;;;;;;;8.40;87.08;101965.88;4993635;28;21033;-51
2021/11/08 02:46:52;;;;;;;14.20;4.50;;;;;;;8.39;87.19;101975.03;4992447;28;20038;-51
2021/11/08 02:49:25;;;;;;;14.07;4.53;;;;;;;8.39;87.14;101972.31;4996678;28;20497;-47
2021/11/08 02:52:02;;;;;;;15.27;4.72;;;;;;;8.37;86.41;101971.72;4998399;28;20133;-48
2021/11/08 02:54:36;;;;;;;15.18;4.88;;;;;;;8.36;86.77;101970.03;4992644;28;20039;-52
2021/11/08 02:57:06;;;;;;;15.50;4.63;;;;;;;8.35;86.52;101984.69;4990416;28;20568;-54
2021/11/08 02:59:36;;;;;;;17.75;5.10;;;;;;;8.34;86.39;101977.59;4992278;28;20517;-51
2021/11/08 03:02:05;;;;;;;13.90;4.45;;;;;;;8.32;86.25;101969.69;4991643;28;20537;-50
2021/11/08 03:04:39;;;;;;;16.88;5.00;;;;;;;8.32;86.73;101968.81;4992720;28;20077;-51
2021/11/08 03:07:07;;;;;;;18.20;4.97;;;;;;;8.31;86.88;101967.19;4991656;28;20505;-49
2021/11/08 03:09:38;;;;;;;15.55;4.82;;;;;;;8.30;86.44;101963.63;4992792;28;20121;-51
2021/11/08 03:12:11;;;;;;;16.17;5.10;;;;;;;8.27;86.25;101963.25;4992166;28;20311;-51
2021/11/08 03:14:45;;;;;;;14.43;4.57;;;;;;;8.27;86.51;101976.81;4992194;28;20058;-51
2021/11/08 03:17:16;;;;;;;13.27;4.90;;;;;;;8.26;86.96;101972.47;4991663;28;20509;-50
2021/11/08 03:19:45;;;;;;;15.02;5.03;;;;;;;8.23;86.23;101970.19;4990164;28;20074;-47
2021/11/08 03:22:16;;;;;;;13.68;5.03;;;;;;;8.22;86.77;101979.38;4992021;28;20073;-53
2021/11/08 03:24:50;;;;;;;17.00;5.25;;;;;;;8.21;87.22;101972.31;4992410;28;20046;-51
2021/11/08 03:27:26;;;;;;;14.30;5.40;;;;;;;8.18;86.50;101972.72;4992106;28;20130;-51
2021/11/08 03:29:55;;;;;;;16.27;5.00;;;;;;;8.18;86.70;101979.00;4991851;28;20050;-52
2021/11/08 03:32:23;;;;;;;16.38;5.18;;;;;;;8.17;87.32;101973.78;4990652;28;20053;-51
2021/11/08 03:35:00;;;;;;;19.33;5.32;;;;;;;8.17;87.09;101980.03;4992052;28;20038;-52
2021/11/08 03:37:31;;;;;;;14.18;4.70;;;;;;;8.16;86.76;101986.53;4991948;28;20058;-51
2021/11/08 03:39:58;;;;;;;17.20;4.88;;;;;;;8.16;87.43;101983.81;4992129;28;20050;-47
2021/11/08 03:42:26;;;;;;;15.57;5.43;;;;;;;8.16;87.01;101988.44;4993644;28;20505;-51
2021/11/08 03:44:55;;;;;;;14.48;5.03;;;;;;;8.14;86.75;101977.78;4995585;28;20066;-52
2021/11/08 03:47:22;;;;;;;13.70;5.15;;;;;;;8.13;86.82;101980.72;4996175;28;20130;-48
2021/11/08 03:49:50;;;;;;;15.50;5.10;;;;;;;8.13;87.74;101983.44;4994858;28;20485;-51
2021/11/08 03:52:19;;;;;;;20.52;5.63;;;;;;;8.11;87.62;101987.22;4995395;28;20056;-53
2021/11/08 03:54:47;;;;;;;20.83;5.75;;;;;;;8.11;87.85;101987.22;4995776;28;20537;-52
2021/11/08 03:57:15;;;;;;;15.18;5.65;;;;;;;8.13;87.69;101992.44;4994858;28;20035;-50
2021/11/08 03:59:42;;;;;;;19.60;5.47;;;;;;;8.13;87.81;101994.28;4995158;28;20070;-51
2021/11/08 04:02:10;;;;;;;18.58;5.07;;;;;;;8.13;87.53;101997.00;4994954;28;20202;-51
2021/11/08 04:04:38;;;;;;;20.35;5.30;;;;;;;8.14;88.01;101998.69;4994925;28;20039;-48
2021/11/08 04:07:05;;;;;;;18.90;5.90;;;;;;;8.14;87.70;102001.41;4994879;28;20070;-51
2021/11/08 04:09:34;;;;;;;17.98;5.32;;;;;;;8.11;87.81;101995.34;4994910;28;20125;-50
2021/11/08 04:12:03;;;;;;;19.10;5.53;;;;;;;8.09;87.66;102008.31;4994279;28;20070;-51
2021/11/08 04:14:31;;;;;;;16.42;4.63;;;;;;;8.07;87.32;102004.97;4994867;28;20043;-50
2021/11/08 04:16:58;;;;;;;17.63;5.72;;;;;;;8.06;87.85;102005.22;4995042;28;20120;-50
2021/11/08 04:19:29;;;;;;;18.60;6.10;;;;;;;8.05;88.13;102017.13;4994593;28;20053;-51
2021/11/08 04:22:00;;;;;;;18.17;5.82;;;;;;;8.04;87.82;102015.47;4994347;28;20053;-51
2021/11/08 04:24:29;;;;;;;18.98;5.25;;;;;;;8.05;87.57;102014.41;4994706;28;20214;-51
2021/11/08 04:26:57;;;;;;;20.50;6.63;;;;;;;8.05;87.48;102012.50;4994618;28;20397;-50
2021/11/08 04:29:25;;;;;;;14.95;5.00;;;;;;;8.05;87.43;102009.81;4994484;28;20046;-50
2021/11/08 04:31:52;;;;;;;18.23;5.22;;;;;;;8.06;88.16;102016.09;4994665;28;20042;-51
2021/11/08 04:34:28;;;;;;;20.08;6.20;;;;;;;8.06;87.77;102003.34;4994733;28;20035;-50
2021/11/08 04:53:12;;;;;;;16.98;5.40;;;;;;;8.03;87.40;102008.38;4933429;29;20135;-52
2021/11/08 05:30:59;;;;;;;18.30;6.38;;;;;;;8.05;87.78;102042.38;4987743;28;20050;-51
2021/11/08 05:33:26;;;;;;;19.80;6.80;;;;;;;8.05;87.94;102039.66;4992716;28;20044;-47
2021/11/08 05:35:54;;;;;;;21.88;6.35;;;;;;;8.06;88.88;102046.75;4993527;28;20449;-47
2021/11/08 05:38:22;;;;;;;21.40;7.05;;;;;;;8.07;87.87;102048.41;4993004;28;20512;-51
2021/11/08 05:40:49;;;;;;;20.77;6.57;;;;;;;8.06;87.95;102044.06;4992932;28;20038;-52
2021/11/08 05:43:17;;;;;;;20.65;6.95;;;;;;;8.07;88.48;102047.59;4993305;28;20042;-54
2021/11/08 05:45:44;;;;;;;22.88;6.57;;;;;;;8.07;88.61;102042.16;4993182;28;20498;-51
2021/11/08 05:48:12;;;;;;;18.60;6.63;;;;;;;8.06;88.70;102044.06;4993030;28;20520;-51
2021/11/08 05:50:42;;;;;;;23.10;6.32;;;;;;;8.06;88.50;102054.91;4992919;28;20537;-51
2021/11/08 05:53:13;;;;;;;20.77;6.60;;;;;;;8.06;88.26;102060.34;4992488;28;20404;-49
2021/11/08 05:55:51;;;;;;;23.88;6.45;;;;;;;8.06;88.81;102057.63;4992854;28;20046;-52
2021/11/08 06:51:33;;;;;;;19.60;6.74;;;;;;;8.18;89.59;102086.75;4754570;29;10000697;-50
2021/11/08 06:54:02;;;;;;;22.67;6.95;;;;;;;8.18;90.05;102095.75;4891799;29;20258;-50
2021/11/08 06:56:37;;;;;;;18.85;6.15;;;;;;;8.18;90.28;102094.91;4892070;29;20147;-51
2021/11/08 06:59:05;;;;;;;21.15;6.82;;;;;;;8.18;89.71;102094.91;4892128;29;20155;-51
2021/11/08 07:01:34;;;;;;;16.23;6.00;;;;;;;8.18;89.70;102095.75;4917724;28;20509;-51
2021/11/08 07:04:02;;;;;;;19.20;5.55;;;;;;;8.19;90.11;102099.28;4967373;28;20848;-52
2021/11/08 07:06:30;;;;;;;23.52;6.53;;;;;;;8.20;89.66;102100.94;4967796;28;20078;-51
2021/11/08 07:08:57;;;;;;;20.88;6.80;;;;;;;8.18;90.47;102105.75;4979175;28;20390;-51
2021/11/08 07:11:25;;;;;;;22.38;6.40;;;;;;;8.18;90.10;102103.03;4990092;28;20038;-49
2021/11/08 07:13:53;;;;;;;14.55;5.35;;;;;;;8.19;90.78;102102.81;4989304;28;20034;-52
2021/11/08 07:16:20;;;;;;;23.98;7.38;;;;;;;8.20;90.42;102114.50;4991333;28;20042;-51
2021/11/08 07:18:48;;;;;;;21.85;6.63;;;;;;;8.19;89.90;102105.53;4994111;28;20054;-47
2021/11/08 07:21:15;;;;;;;18.17;5.90;;;;;;;8.22;90.04;102115.13;4993579;28;20551;-49
2021/11/08 07:23:43;;;;;;;20.55;6.93;;;;;;;8.22;90.18;102120.56;4993085;28;20043;-51
2021/11/08 07:26:12;;;;;;;22.05;6.65;;;;;;;8.22;90.78;102115.94;4993208;28;20458;-54
2021/11/08 07:28:40;;;;;;;18.70;6.95;;;;;;;8.22;90.21;102121.38;4993090;28;20077;-51
2021/11/08 07:31:09;;;;;;;19.17;6.18;;;;;;;8.24;90.74;102123.88;4993505;28;20054;-47
2021/11/08 07:33:37;;;;;;;20.17;6.25;;;;;;;8.23;90.15;102122.25;4993694;28;20050;-54
2021/11/08 07:36:05;;;;;;;29.33;8.07;;;;;;;8.22;90.65;102126.00;4992419;28;20058;-51
2021/11/08 07:38:35;;;;;;;23.67;7.32;;;;;;;8.21;90.54;102127.06;4993264;28;20050;-54
2021/11/08 07:41:04;;;;;;;26.83;7.43;;;;;;;8.21;90.52;102136.03;4993127;28;20042;-53
2021/11/08 07:43:38;;;;;;;21.70;6.63;;;;;;;8.24;90.55;102145.63;4993723;28;20050;-53
2021/11/08 07:46:06;;;;;;;24.48;7.15;;;;;;;8.24;91.36;102140.19;4993208;28;20598;-52
2021/11/08 07:48:39;;;;;;;18.20;6.43;;;;;;;8.25;90.77;102147.25;4992566;28;20113;-53
2021/11/08 07:51:12;;;;;;;20.63;7.32;;;;;;;8.27;91.39;102150.59;4992738;28;20073;-52
2021/11/08 07:53:40;;;;;;;25.05;7.43;;;;;;;8.29;91.58;102153.94;4992472;28;20130;-50
2021/11/08 07:56:08;;;;;;;20.95;7.15;;;;;;;8.32;91.44;102156.19;4993168;28;20042;-53
2021/11/08 07:58:36;;;;;;;26.83;8.00;;;;;;;8.33;90.75;102157.88;4992718;28;20042;-52
2021/11/08 08:01:05;;;;;;;29.83;7.22;;;;;;;8.33;91.34;102157.88;4983986;28;20045;-52
2021/11/08 08:03:33;;;;;;;23.65;8.10;;;;;;;8.32;90.69;102157.06;4986050;28;20041;-52
2021/11/08 08:06:02;;;;;;;22.85;7.10;;;;;;;8.34;91.28;102164.97;4992651;28;20049;-53
2021/11/08 08:08:30;;;;;;;23.75;7.20;;;;;;;8.35;91.09;102163.09;4992443;28;20050;-51
2021/11/08 08:10:58;;;;;;;24.35;6.57;;;;;;;8.36;91.47;102170.19;4991330;28;20430;-53
2021/11/08 08:13:28;;;;;;;28.63;7.68;;;;;;;8.36;91.18;102154.72;4991996;28;20030;-53
2021/11/08 08:15:59;;;;;;;24.27;7.38;;;;;;;8.37;91.64;102164.53;4992702;28;20056;-54
2021/11/08 08:18:28;;;;;;;25.85;7.05;;;;;;;8.38;91.72;102166.19;4991945;28;20043;-56
2021/11/08 08:20:56;;;;;;;23.00;7.18;;;;;;;8.39;91.79;102173.28;4990348;28;20046;-55
2021/11/08 08:23:24;;;;;;;26.58;7.30;;;;;;;8.41;91.25;102168.50;4992049;28;20038;-50
2021/11/08 08:25:52;;;;;;;25.13;7.07;;;;;;;8.42;91.26;102175.59;4991959;28;20046;-55
2021/11/08 08:28:20;;;;;;;19.48;6.57;;;;;;;8.45;91.83;102185.19;4990636;28;20046;-54
2021/11/08 08:30:47;;;;;;;17.38;5.75;;;;;;;8.51;92.22;102189.72;4990585;28;20072;-56
2021/11/08 08:33:16;;;;;;;24.63;7.30;;;;;;;8.53;91.94;102193.06;4991408;28;20049;-55
2021/11/08 08:35:44;;;;;;;21.80;7.43;;;;;;;8.53;92.17;102177.59;4991895;28;20070;-53
2021/11/08 08:38:16;;;;;;;28.45;8.27;;;;;;;8.54;92.00;102183.88;4993701;28;20045;-52
2021/11/08 08:40:47;;;;;;;23.20;6.60;;;;;;;8.55;92.46;102201.00;4992919;28;20429;-53
2021/11/08 08:43:16;;;;;;;27.58;7.70;;;;;;;8.56;91.94;102208.09;4991809;28;20034;-51
2021/11/08 08:45:43;;;;;;;22.35;6.65;;;;;;;8.57;92.28;102199.72;4994546;28;20050;-52
2021/11/08 08:48:11;;;;;;;22.02;7.03;;;;;;;8.59;92.47;102207.66;4993694;28;20045;-49
2021/11/08 08:50:40;;;;;;;22.73;7.47;;;;;;;8.61;92.18;102202.81;4993813;28;20066;-52
2021/11/08 08:53:08;;;;;;;21.23;7.13;;;;;;;8.64;92.38;102214.09;4994500;28;20521;-52
2021/11/08 08:55:40;;;;;;;19.85;7.22;;;;;;;8.66;92.52;102202.97;4981002;28;20050;-52
2021/11/08 08:58:08;;;;;;;22.13;7.15;;;;;;;8.69;92.32;102208.00;4994288;28;20080;-50
2021/11/08 09:00:37;;;;;;;21.73;7.20;;;;;;;8.69;92.31;102208.00;4994204;28;20047;-54
2021/11/08 09:03:06;;;;;;;23.70;6.63;;;;;;;8.71;92.73;102216.75;4993988;28;20401;-51
2021/11/08 09:05:36;;;;;;;20.20;7.22;;;;;;;8.72;92.09;102221.97;4993898;28;20038;-53
2021/11/08 09:08:04;;;;;;;22.25;6.18;;;;;;;8.73;92.22;102218.19;4993789;28;20089;-52
2021/11/08 09:10:33;;;;;;;18.33;6.20;;;;;;;8.75;92.63;102217.97;4993835;28;20038;-54
2021/11/08 09:13:02;;;;;;;20.95;7.18;;;;;;;8.76;92.49;102227.81;4993969;28;20049;-50
2021/11/08 09:15:31;;;;;;;17.45;6.10;;;;;;;8.79;92.13;102230.06;4993577;28;20057;-52
2021/11/08 09:17:59;;;;;;;19.48;6.25;;;;;;;8.80;92.53;102237.16;4993327;28;20498;-51
2021/11/08 09:20:30;;;;;;;29.48;8.23;;;;;;;8.87;92.74;102232.50;4993329;28;20050;-52
2021/11/08 09:22:59;;;;;;;29.30;9.07;;;;;;;8.91;93.89;102236.44;4994179;28;20046;-51
2021/11/08 09:25:27;;;;;;;38.72;11.10;;;;;;;8.94;93.46;102227.00;4993603;28;20528;-53
2021/11/08 09:27:57;;;;;;;29.73;9.00;;;;;;;8.98;93.65;102227.41;4980423;28;20049;-52
2021/11/08 09:30:28;;;;;;;43.28;13.68;;;;;;;9.11;98.21;102228.09;4993145;28;20137;-51
2021/11/08 09:32:56;;;;;;;42.35;13.48;;;;;;;9.27;100.00;102223.16;4993195;28;20497;-52
2021/11/08 09:35:30;;;;;;;29.13;9.88;;;;;;;9.25;98.46;102223.38;4992402;28;20038;-50
2021/11/08 09:37:59;;;;;;;38.63;11.60;;;;;;;9.31;100.00;102225.22;5007550;28;20497;-53
2021/11/08 09:40:27;;;;;;;28.60;8.82;;;;;;;9.32;99.54;102221.41;4992608;28;20067;-52
2021/11/08 09:42:56;;;;;;;23.10;7.45;;;;;;;9.19;96.91;102224.28;4993281;28;20050;-52
2021/11/08 09:45:25;;;;;;;19.92;6.57;;;;;;;9.13;96.07;102222.44;4992889;28;20478;-51
2021/11/08 09:47:53;;;;;;;26.85;8.55;;;;;;;9.27;99.22;102215.81;4993286;28;20045;-52
2021/11/08 09:50:25;;;;;;;25.00;7.22;;;;;;;9.21;96.66;102226.75;4992628;28;20058;-51
2021/11/08 09:52:52;;;;;;;22.20;6.78;;;;;;;9.12;95.63;102224.34;4993196;28;20525;-52
2021/11/08 09:55:23;;;;;;;23.17;6.38;;;;;;;9.07;94.56;102220.63;4991863;28;20038;-51
2021/11/08 09:57:53;;;;;;;21.20;6.57;;;;;;;9.00;93.22;102225.31;4993162;28;21020;-50
2021/11/08 10:00:34;;;;;;;26.45;7.32;;;;;;;8.96;93.22;102231.16;5007444;28;20046;-49
2021/11/08 10:03:16;;;;;;;18.65;6.68;;;;;;;8.98;93.45;102230.13;4992700;28;20046;-52
2021/11/08 10:05:49;;;;;;;19.63;6.80;;;;;;;8.99;93.37;102231.78;4992961;28;20050;-48
2021/11/08 10:08:21;;;;;;;21.25;6.13;;;;;;;9.00;93.42;102233.47;4992853;28;20101;-51
2021/11/08 10:10:51;;;;;;;21.15;6.80;;;;;;;9.02;93.45;102234.91;4992717;28;20464;-53
2021/11/08 10:13:23;;;;;;;21.98;6.75;;;;;;;9.04;93.07;102229.22;4993071;28;20054;-51
2021/11/08 10:15:55;;;;;;;23.60;7.05;;;;;;;9.06;92.80;102227.13;4992383;28;20038;-51
2021/11/08 10:18:23;;;;;;;30.15;6.90;;;;;;;9.05;93.03;102228.19;4992900;28;20046;-52
2021/11/08 10:20:55;;;;;;;26.98;7.90;;;;;;;9.14;93.90;102233.13;4992111;28;20042;-50
2021/11/08 10:23:25;;;;;;;22.52;7.15;;;;;;;9.12;93.23;102237.13;4993084;28;20038;-51
2021/11/08 10:25:53;;;;;;;23.80;7.20;;;;;;;9.09;92.99;102232.09;4992697;28;20073;-49
2021/11/08 10:28:25;;;;;;;26.10;6.82;;;;;;;9.07;92.68;102232.34;4992645;28;20942;-52
2021/11/08 10:31:00;;;;;;;28.95;7.68;;;;;;;9.09;93.18;102240.25;4991872;28;20047;-52
2021/11/08 10:33:32;;;;;;;26.10;7.68;;;;;;;9.19;93.67;102240.59;4992629;28;20062;-51
2021/11/08 10:36:15;;;;;;;20.42;7.70;;;;;;;9.20;93.06;102236.81;4992885;28;20445;-51
2021/11/08 10:38:46;;;;;;;22.05;6.38;;;;;;;9.16;92.42;102236.44;4992881;28;20498;-52
2021/11/08 10:41:20;;;;;;;24.10;6.80;;;;;;;9.16;92.55;102246.47;5007049;28;20153;-51
2021/11/08 10:44:09;;;;;;;21.50;6.88;;;;;;;9.18;92.38;102252.50;4992467;28;20112;-51
2021/11/08 10:46:46;;;;;;;25.10;7.00;;;;;;;9.20;92.51;102247.69;4992130;28;20047;-51
2021/11/08 10:49:16;;;;;;;25.20;7.55;;;;;;;9.22;92.32;102245.59;4992419;28;20042;-52
2021/11/08 10:51:49;;;;;;;21.85;6.60;;;;;;;9.25;92.51;102247.84;4994489;28;20109;-52
2021/11/08 10:54:33;;;;;;;27.15;6.90;;;;;;;9.25;92.11;102241.59;4996436;28;20050;-52
2021/11/08 10:57:10;;;;;;;22.55;6.53;;;;;;;9.26;91.72;102241.38;4996525;28;20034;-52
2021/11/08 10:59:43;;;;;;;20.15;6.63;;;;;;;9.25;91.67;102233.44;4996483;28;20088;-50
2021/11/08 11:02:13;;;;;;;22.77;6.57;;;;;;;9.25;91.35;102234.25;4995828;28;20046;-52
2021/11/08 11:04:44;;;;;;;24.98;7.95;;;;;;;9.25;91.40;102242.41;4996336;28;20097;-52
2021/11/08 11:07:14;;;;;;;21.23;6.50;;;;;;;9.36;92.38;102230.81;4996264;28;20046;-51
2021/11/08 11:09:42;;;;;;;19.58;6.03;;;;;;;9.39;91.56;102230.34;4995233;28;20069;-52
2021/11/08 11:12:15;;;;;;;23.15;7.93;;;;;;;9.43;91.21;102227.16;4996077;28;20370;-51
2021/11/08 11:14:48;;;;;;;22.95;6.90;;;;;;;9.46;91.15;102218.56;4995429;28;20497;-52
2021/11/08 11:17:17;;;;;;;19.10;6.57;;;;;;;9.46;90.95;102210.41;4996113;28;20081;-52
2021/11/08 11:19:46;;;;;;;26.55;7.32;;;;;;;9.53;91.20;102216.59;4996301;28;20383;-51
2021/11/08 11:22:18;;;;;;;25.20;7.28;;;;;;;9.54;91.04;102220.97;4995139;28;20441;-53
2021/11/08 11:24:51;;;;;;;23.38;5.90;;;;;;;9.57;90.75;102217.78;4996057;28;20409;-52
2021/11/08 11:27:25;;;;;;;18.98;5.97;;;;;;;9.63;90.82;102219.63;4995143;28;20046;-51
2021/11/08 11:29:54;;;;;;;25.30;6.70;;;;;;;9.65;90.50;102225.66;4984065;28;20437;-52
2021/11/08 11:33:02;;;;;;;17.83;6.25;;;;;;;9.75;92.17;102216.97;4916354;29;20430;-51
2021/11/08 11:35:36;;;;;;;19.05;6.30;;;;;;;9.79;91.84;102221.72;4916430;29;20662;-51
2021/11/08 11:38:07;;;;;;;17.20;6.38;;;;;;;9.80;91.15;102226.09;4916665;29;20048;-51
2021/11/08 11:40:42;;;;;;;21.80;6.95;;;;;;;9.80;90.70;102226.09;4915678;29;20083;-52
2021/11/08 11:43:14;;;;;;;27.50;7.43;;;;;;;9.80;89.83;102231.56;4915876;29;20500;-49
2021/11/08 11:45:50;;;;;;;21.77;7.47;;;;;;;9.74;89.36;102227.03;4916075;29;20072;-51
2021/11/08 11:48:22;;;;;;;19.08;5.65;;;;;;;9.79;90.69;102229.91;4916375;29;20059;-52
2021/11/08 11:51:09;;;;;;;22.60;6.20;;;;;;;10.06;95.62;102221.38;4974307;28;20060;-52
2021/11/08 11:53:38;;;;;;;22.73;7.82;;;;;;;9.95;90.91;102219.44;4995269;28;20393;-52
2021/11/08 11:56:06;;;;;;;20.10;6.55;;;;;;;10.08;94.26;102226.59;4995031;28;20114;-50
2021/11/08 11:58:35;;;;;;;25.88;7.60;;;;;;;10.17;93.15;102223.34;4994043;28;20494;-54
2021/11/08 12:01:06;;;;;;;28.15;7.55;;;;;;;10.15;91.15;102230.91;4647330;28;10000357;-52
2021/11/08 12:03:35;;;;;;;19.92;6.68;;;;;;;10.17;91.79;102217.91;4991105;28;20042;-52
2021/11/08 12:06:03;;;;;;;19.58;6.40;;;;;;;10.06;89.85;102209.69;4993226;28;20111;-52
2021/11/08 12:08:38;;;;;;;13.20;4.68;;;;;;;10.20;96.22;102213.88;4991116;28;20129;-52
2021/11/08 12:11:08;;;;;;;23.00;7.05;;;;;;;10.16;91.88;102218.94;4994400;28;20042;-52
2021/11/08 12:13:54;;;;;;;17.38;6.38;;;;;;;10.13;91.10;102208.50;4994490;28;20046;-50
2021/11/08 12:16:26;;;;;;;;;;;;;;;10.08;89.27;102215.69;4995218;28;20046;-51
2021/11/08 12:18:59;;;;;;;29.23;7.65;;;;;;;10.09;88.84;102223.66;4994694;28;20385;-50
2021/11/08 12:21:34;;;;;;;27.00;8.35;;;;;;;10.10;88.80;102219.03;4994821;28;20561;-53
2021/11/08 12:24:14;;;;;;;23.23;7.47;;;;;;;10.05;88.64;102219.72;4994426;28;20489;-52
2021/11/08 12:26:42;;;;;;;17.08;5.68;;;;;;;10.27;93.05;102224.66;4994426;28;20141;-48
2021/11/08 12:29:19;;;;;;;24.08;7.47;;;;;;;10.18;89.17;102226.88;4993799;28;20061;-51
2021/11/08 12:31:59;;;;;;;24.67;7.82;;;;;;;10.10;87.72;102235.38;4994795;28;20051;-51
2021/11/08 12:34:27;;;;;;;25.55;7.05;;;;;;;10.09;88.13;102223.66;4994558;28;20095;-52
2021/11/08 12:37:01;;;;;;;27.55;7.75;;;;;;;10.06;87.25;102213.22;4977402;28;20046;-51
2021/11/08 12:39:29;;;;;;;28.73;7.65;;;;;;;10.06;87.01;102218.66;4994136;28;20125;-55
2021/11/08 12:42:03;;;;;;;21.10;6.95;;;;;;;10.10;87.28;102219.88;4994171;28;20589;-55
2021/11/08 12:44:46;;;;;;;20.08;7.00;;;;;;;10.17;87.36;102215.16;4993816;28;20042;-51
2021/11/08 12:47:15;;;;;;;23.05;6.75;;;;;;;10.10;85.45;102211.72;4994647;28;20391;-48
2021/11/08 12:49:51;;;;;;;22.95;6.82;;;;;;;10.10;85.85;102214.44;4994303;28;20072;-51
2021/11/08 12:52:22;;;;;;;22.60;7.28;;;;;;;10.15;85.77;102219.16;4994564;28;20440;-52
2021/11/08 12:54:55;;;;;;;25.50;6.90;;;;;;;10.32;88.10;102213.91;4993974;28;20420;-51
2021/11/08 12:57:26;;;;;;;21.67;7.05;;;;;;;10.33;86.98;102196.53;4981351;28;20046;-54
2021/11/08 13:00:05;;;;;;;23.92;6.65;;;;;;;10.30;85.24;102197.00;4994198;28;20413;-51
2021/11/08 13:02:50;;;;;;;19.42;6.47;;;;;;;10.32;85.36;102190.25;4993663;28;20136;-52
2021/11/08 13:05:32;;;;;;;24.10;6.95;;;;;;;10.31;85.51;102198.66;4993928;28;20050;-52
2021/11/08 13:08:01;;;;;;;25.27;7.35;;;;;;;10.36;85.60;102199.59;4993832;28;20042;-52
2021/11/08 13:10:33;;;;;;;26.55;7.25;;;;;;;10.39;86.42;102190.13;4992582;28;20105;-51
2021/11/08 13:13:02;;;;;;;20.52;6.82;;;;;;;10.33;85.52;102188.34;4992494;28;20453;-51
2021/11/08 13:15:31;;;;;;;28.00;7.25;;;;;;;10.28;84.44;102188.19;4993754;28;20600;-50
2021/11/08 13:18:03;;;;;;;19.95;5.72;;;;;;;10.35;87.65;102184.34;4993065;28;20527;-52
2021/11/08 13:20:40;;;;;;;20.35;6.22;;;;;;;10.31;85.03;102188.56;4990149;28;20050;-49
2021/11/08 13:23:11;;;;;;;16.13;5.15;;;;;;;10.32;85.39;102197.56;4992903;28;20489;-50
2021/11/08 13:25:42;;;;;;;22.50;6.70;;;;;;;10.36;85.67;102193.34;4993096;28;20105;-52